Time;durP1;ratioP1;P1;durP2;ratioP2;P2;SDS_P1;SDS_P2;PMS_P1;PMS_P2;Temp;Humidity;BMP_temperature;BMP_pressure;BME280_temperature;BME280_humidity;BME280_pressure;Samples;Min_cycle;Max_cycle;Signal;HPM_P1;HPM_P2
2023/10/09 00:01:44;;;;;;;18.67;7.38;;;14.60;99.90;;;;;;4963154;28;20077;-68
2023/10/09 00:04:11;;;;;;;16.55;7.07;;;14.60;99.90;;;;;;4959873;28;20026;-66
2023/10/09 00:06:37;;;;;;;19.15;7.82;;;14.60;99.90;;;;;;4963120;28;20043;-65
2023/10/09 00:11:56;;;;;;;20.55;8.10;;;14.50;99.90;;;;;;4956262;28;20085;-68
2023/10/09 00:14:23;;;;;;;18.98;7.30;;;14.40;99.90;;;;;;4960195;28;20426;-65
2023/10/09 00:16:55;;;;;;;14.07;7.50;;;14.40;99.90;;;;;;4956955;28;20842;-69
2023/10/09 00:19:30;;;;;;;17.63;6.93;;;14.40;99.90;;;;;;4963870;28;20492;-65
2023/10/09 00:21:58;;;;;;;20.95;7.50;;;14.50;99.90;;;;;;4958651;28;20035;-68
2023/10/09 00:24:24;;;;;;;20.27;7.35;;;14.50;99.90;;;;;;4955986;28;20041;-69
2023/10/09 00:27:11;;;;;;;20.52;7.75;;;14.60;99.90;;;;;;4963828;28;20026;-66
2023/10/09 00:29:44;;;;;;;14.68;7.82;;;14.60;99.90;;;;;;4958846;28;20035;-68
2023/10/09 00:32:32;;;;;;;22.58;7.40;;;14.60;99.90;;;;;;4962829;28;20027;-68
2023/10/09 00:35:13;;;;;;;15.77;7.65;;;14.40;99.90;;;;;;4960837;28;20175;-69
2023/10/09 00:37:39;;;;;;;20.13;6.45;;;14.50;99.90;;;;;;4983477;28;20058;-69
2023/10/09 00:40:22;;;;;;;18.90;7.15;;;14.40;99.90;;;;;;4965935;28;20026;-69
2023/10/09 00:42:48;;;;;;;17.23;7.28;;;14.30;99.90;;;;;;4961336;28;20030;-67
2023/10/09 00:45:24;;;;;;;16.75;7.35;;;14.40;99.90;;;;;;4958691;28;20885;-67
2023/10/09 00:47:51;;;;;;;15.13;7.25;;;14.30;99.90;;;;;;4962832;28;20510;-68
2023/10/09 00:53:01;;;;;;;15.35;7.07;;;14.30;99.90;;;;;;4962077;28;20024;-68
2023/10/09 00:55:37;;;;;;;15.57;6.70;;;14.30;99.90;;;;;;4958940;28;20537;-69
2023/10/09 00:58:09;;;;;;;20.57;7.70;;;14.20;99.90;;;;;;4988617;28;20403;-65
2023/10/09 01:03:21;;;;;;;15.02;6.75;;;14.20;99.90;;;;;;4957809;28;20052;-65
2023/10/09 01:11:09;;;;;;;13.77;7.20;;;14.10;99.90;;;;;;4963899;28;20397;-67
2023/10/09 01:16:22;;;;;;;19.13;7.10;;;14.00;99.90;;;;;;4957314;28;20055;-67
2023/10/09 01:18:50;;;;;;;15.90;7.13;;;14.00;99.90;;;;;;4964931;28;20414;-70
2023/10/09 01:21:17;;;;;;;17.92;8.73;;;14.10;99.90;;;;;;4993530;28;20122;-69
2023/10/09 01:26:44;;;;;;;18.67;7.43;;;14.00;99.90;;;;;;4963600;28;20058;-69
2023/10/09 01:29:14;;;;;;;13.90;7.00;;;14.00;99.90;;;;;;4963130;28;20035;-69
2023/10/09 01:31:55;;;;;;;9.88;6.25;;;14.00;99.90;;;;;;4957196;28;20045;-69
2023/10/09 01:34:34;;;;;;;14.48;6.47;;;14.00;99.90;;;;;;4963483;28;20558;-65
2023/10/09 01:37:00;;;;;;;17.70;6.32;;;14.00;99.90;;;;;;4951960;28;20057;-65
2023/10/09 01:39:39;;;;;;;22.33;7.83;;;13.90;99.90;;;;;;4974328;28;20430;-65
2023/10/09 01:42:06;;;;;;;13.40;6.85;;;13.90;99.90;;;;;;4961271;28;20070;-68
2023/10/09 01:44:35;;;;;;;14.57;7.78;;;13.90;99.90;;;;;;4958769;28;20031;-68
2023/10/09 01:47:13;;;;;;;19.98;6.90;;;13.80;99.90;;;;;;4957816;28;20570;-69
2023/10/09 01:49:43;;;;;;;21.33;7.90;;;13.80;99.90;;;;;;4960629;28;20058;-66
2023/10/09 01:52:10;;;;;;;13.20;7.00;;;13.70;99.90;;;;;;4964876;28;20062;-64
2023/10/09 01:54:46;;;;;;;15.05;6.93;;;13.70;99.90;;;;;;4958095;28;20054;-65
2023/10/09 01:57:12;;;;;;;16.67;7.07;;;13.70;99.90;;;;;;4962391;28;20027;-69
2023/10/09 01:59:49;;;;;;;62.70;23.13;;;13.60;99.90;;;;;;4961364;28;20149;-66
2023/10/09 02:02:35;;;;;;;55.75;22.98;;;13.60;99.90;;;;;;4965278;28;20198;-66
2023/10/09 02:07:44;;;;;;;17.92;7.32;;;13.50;99.90;;;;;;4964843;28;20118;-65
2023/10/09 02:13:07;;;;;;;19.35;7.65;;;13.50;99.90;;;;;;4966514;28;20027;-68
2023/10/09 02:21:28;;;;;;;14.45;7.22;;;13.50;99.90;;;;;;4966255;28;20039;-68
2023/10/09 02:26:25;;;;;;;13.52;6.68;;;13.60;99.90;;;;;;4958661;28;20039;-69
2023/10/09 02:28:58;;;;;;;25.30;7.90;;;13.60;99.90;;;;;;4962652;28;20035;-69
2023/10/09 02:31:27;;;;;;;22.48;7.80;;;13.60;99.90;;;;;;4963533;28;20026;-70
2023/10/09 02:33:55;;;;;;;16.08;6.93;;;13.50;99.90;;;;;;4957682;28;20038;-69
2023/10/09 02:36:24;;;;;;;17.25;6.85;;;13.50;99.90;;;;;;4966912;28;20082;-69
2023/10/09 02:38:53;;;;;;;15.63;6.80;;;13.60;99.90;;;;;;4965774;28;20039;-67
2023/10/09 02:41:23;;;;;;;17.45;6.78;;;13.60;99.90;;;;;;4968228;28;20502;-67
2023/10/09 02:43:55;;;;;;;17.15;6.35;;;13.60;99.90;;;;;;4961717;28;20022;-69
2023/10/09 02:46:28;;;;;;;17.70;7.18;;;13.60;99.90;;;;;;4959227;28;20720;-67
2023/10/09 02:48:56;;;;;;;17.75;7.40;;;13.60;99.90;;;;;;4961595;28;20031;-69
2023/10/09 02:53:52;;;;;;;18.67;7.40;;;13.70;99.90;;;;;;4965185;28;20142;-69
2023/10/09 02:56:23;;;;;;;13.48;6.90;;;13.70;99.90;;;;;;4967609;28;20058;-68
2023/10/09 02:58:53;;;;;;;17.42;7.28;;;13.60;99.90;;;;;;4957848;28;20589;-69
2023/10/09 03:01:19;;;;;;;17.90;6.80;;;13.60;99.90;;;;;;4957590;28;20023;-65
2023/10/09 03:03:45;;;;;;;26.58;6.85;;;13.50;99.90;;;;;;4956103;28;20035;-68
2023/10/09 03:06:28;;;;;;;18.92;6.95;;;13.40;99.90;;;;;;4966731;28;20034;-68
2023/10/09 03:08:54;;;;;;;16.60;6.30;;;13.60;99.90;;;;;;4962531;28;20046;-68
2023/10/09 03:11:20;;;;;;;15.50;6.50;;;13.70;99.90;;;;;;4957212;28;20018;-68
2023/10/09 03:13:47;;;;;;;17.15;6.55;;;13.70;99.90;;;;;;4969173;28;20038;-68
2023/10/09 03:16:19;;;;;;;16.88;7.65;;;13.60;99.90;;;;;;4961881;28;20031;-68
2023/10/09 03:18:54;;;;;;;17.63;6.78;;;13.70;99.90;;;;;;4957381;28;20047;-65
2023/10/09 03:21:20;;;;;;;28.20;6.53;;;13.80;99.90;;;;;;4957003;28;20035;-67
2023/10/09 03:23:51;;;;;;;14.30;6.78;;;13.90;99.90;;;;;;4955913;28;20043;-65
2023/10/09 03:26:17;;;;;;;18.55;6.65;;;13.80;99.90;;;;;;4959779;28;20101;-65
2023/10/09 03:28:45;;;;;;;17.05;7.32;;;13.70;99.90;;;;;;4959401;28;20126;-65
2023/10/09 03:31:11;;;;;;;15.15;6.55;;;13.80;99.90;;;;;;4959329;28;20031;-65
2023/10/09 03:33:38;;;;;;;13.18;6.25;;;13.70;99.90;;;;;;4961420;28;20034;-65
2023/10/09 03:36:07;;;;;;;16.30;7.13;;;13.80;99.90;;;;;;4961949;28;20117;-65
2023/10/09 03:38:34;;;;;;;24.45;7.15;;;13.70;99.90;;;;;;4965673;28;20023;-68
2023/10/09 03:41:05;;;;;;;17.95;6.90;;;13.70;99.90;;;;;;4958758;28;20114;-69
2023/10/09 03:43:39;;;;;;;15.02;7.65;;;13.60;99.90;;;;;;4964802;28;20035;-69
2023/10/09 03:46:21;;;;;;;16.40;6.22;;;13.70;99.90;;;;;;4958205;28;20050;-66
2023/10/09 03:48:56;;;;;;;14.50;6.70;;;13.70;99.90;;;;;;4962632;28;20036;-64
2023/10/09 03:51:23;;;;;;;15.40;6.82;;;13.70;99.90;;;;;;4993198;28;20528;-66
2023/10/09 03:53:49;;;;;;;15.75;7.05;;;13.60;99.90;;;;;;4952215;28;20031;-66
2023/10/09 03:56:16;;;;;;;14.65;6.10;;;13.70;99.90;;;;;;4959156;28;20066;-68
2023/10/09 03:58:44;;;;;;;14.50;6.70;;;13.60;99.90;;;;;;4954523;28;20046;-69
2023/10/09 04:01:37;;;;;;;15.65;7.20;;;13.60;99.90;;;;;;4957268;28;20667;-68
2023/10/09 04:04:06;;;;;;;14.45;6.47;;;13.60;99.90;;;;;;4959013;28;20043;-68
2023/10/09 04:06:33;;;;;;;16.85;6.10;;;13.60;99.90;;;;;;4955205;28;20050;-69
2023/10/09 04:09:00;;;;;;;;;;;13.70;99.90;;;;;;4954635;28;20031;-69
2023/10/09 04:11:26;;;;;;;19.63;7.47;;;13.80;99.90;;;;;;4957890;28;19914;-68
2023/10/09 04:13:52;;;;;;;17.40;6.72;;;13.80;99.90;;;;;;4960163;28;20044;-68
2023/10/09 04:18:56;;;;;;;17.33;7.05;;;13.80;99.90;;;;;;4955599;28;20434;-70
2023/10/09 04:21:35;;;;;;;19.88;6.60;;;13.60;99.90;;;;;;4956237;28;20131;-68
2023/10/09 04:26:44;;;;;;;18.85;7.22;;;13.70;99.90;;;;;;4959972;28;20431;-69
2023/10/09 04:29:10;;;;;;;18.73;7.32;;;13.70;99.90;;;;;;4958842;28;20043;-68
2023/10/09 04:31:37;;;;;;;22.23;6.55;;;13.60;99.90;;;;;;4960076;28;20171;-69
2023/10/09 04:34:22;;;;;;;11.10;5.57;;;13.60;99.90;;;;;;4984620;28;20062;-69
2023/10/09 04:39:36;;;;;;;16.23;6.57;;;13.40;99.90;;;;;;4956924;28;20064;-67
2023/10/09 04:47:49;;;;;;;19.05;7.28;;;13.20;99.90;;;;;;4953786;28;20023;-68
2023/10/09 04:50:36;;;;;;;17.25;7.15;;;13.20;99.90;;;;;;4952146;28;20023;-66
2023/10/09 04:55:44;;;;;;;13.93;7.60;;;13.10;99.90;;;;;;4959356;28;20509;-68
2023/10/09 04:58:23;;;;;;;17.75;7.25;;;13.00;99.90;;;;;;4959765;28;20106;-68
2023/10/09 05:01:02;;;;;;;18.15;6.95;;;13.00;99.90;;;;;;4954642;28;20122;-67
2023/10/09 05:03:30;;;;;;;18.42;7.50;;;12.90;99.90;;;;;;4956726;28;20464;-68
2023/10/09 05:05:59;;;;;;;23.95;7.88;;;12.90;99.90;;;;;;4957708;28;20055;-67
2023/10/09 05:08:29;;;;;;;21.52;7.75;;;12.90;99.90;;;;;;4954533;28;20503;-67
2023/10/09 05:16:18;;;;;;;16.85;6.95;;;13.00;99.90;;;;;;4957044;28;20063;-65
2023/10/09 05:19:20;;;;;;;17.70;7.88;;;13.00;99.90;;;;;;4954726;28;20294;-70
2023/10/09 05:21:52;;;;;;;23.38;7.38;;;13.00;99.90;;;;;;4957958;28;20038;-65
2023/10/09 05:24:19;;;;;;;21.35;7.28;;;13.10;99.90;;;;;;4963260;28;20043;-66
2023/10/09 05:34:33;;;;;;;16.67;6.68;;;13.00;99.90;;;;;;4958667;28;20110;-65
2023/10/09 05:37:26;;;;;;;14.73;6.75;;;13.00;99.90;;;;;;4958444;28;20035;-65
2023/10/09 05:42:42;;;;;;;22.42;7.20;;;13.00;99.90;;;;;;4956805;28;20031;-65
2023/10/09 06:11:49;;;;;;;18.88;6.25;;;12.90;99.90;;;;;;4962420;28;20034;-67
2023/10/09 06:14:24;;;;;;;16.92;7.18;;;12.90;99.90;;;;;;4963188;28;20022;-69
2023/10/09 06:24:22;;;;;;;24.15;7.40;;;13.00;99.90;;;;;;4958675;28;20618;-67
2023/10/09 06:29:50;;;;;;;26.02;8.70;;;13.00;99.90;;;;;;4957673;28;20031;-67
2023/10/09 06:45:54;;;;;;;21.80;7.45;;;13.40;99.90;;;;;;4953366;28;20039;-72
2023/10/09 06:59:24;;;;;;;19.55;7.75;;;14.00;99.90;;;;;;4987187;28;20412;-65
2023/10/09 07:07:02;;;;;;;17.52;6.78;;;14.60;99.90;;;;;;4957808;28;20450;-63
2023/10/09 07:09:42;;;;;;;17.70;6.07;;;14.60;99.90;;;;;;4959349;28;20027;-63
2023/10/09 07:12:43;;;;;;;24.30;7.05;;;14.70;99.90;;;;;;4959014;28;20035;-64
2023/10/09 07:15:40;;;;;;;20.65;7.13;;;14.90;99.90;;;;;;4982235;28;20114;-64
2023/10/09 07:17:47;;;;;;;15.70;6.47;;;15.00;99.90;;;;;;4961781;28;20039;-64
2023/10/09 07:20:36;;;;;;;25.67;7.83;;;16.90;99.90;;;;;;4957031;28;20369;-63
2023/10/09 07:23:14;;;;;;;19.92;6.57;;;18.40;98.50;;;;;;4958086;28;20039;-66
2023/10/09 07:28:36;;;;;;;19.08;6.75;;;18.50;95.60;;;;;;4962159;28;20578;-67
2023/10/09 07:31:08;;;;;;;28.98;8.38;;;17.10;99.90;;;;;;4956455;28;20039;-64
2023/10/09 07:33:56;;;;;;;25.65;6.60;;;16.80;99.90;;;;;;4960859;28;20050;-64
2023/10/09 07:36:34;;;;;;;15.82;7.13;;;16.30;99.90;;;;;;4956782;28;20098;-64
2023/10/09 07:39:01;;;;;;;17.65;6.95;;;16.30;99.90;;;;;;4957410;28;20423;-64
2023/10/09 07:41:33;;;;;;;13.23;5.80;;;16.50;99.90;;;;;;4949754;28;20027;-64
2023/10/09 07:44:18;;;;;;;19.05;6.47;;;17.30;99.90;;;;;;4956833;28;20066;-66
2023/10/09 07:47:13;;;;;;;14.80;6.53;;;17.90;99.60;;;;;;4961572;28;20122;-67
2023/10/09 07:49:39;;;;;;;15.50;6.05;;;18.10;98.80;;;;;;4964598;28;20496;-67
2023/10/09 07:52:06;;;;;;;17.60;6.15;;;18.70;96.30;;;;;;4957728;28;20194;-66
2023/10/09 07:54:36;;;;;;;;;;;18.50;97.00;;;;;;4957537;28;20031;-64
2023/10/09 07:57:15;;;;;;;15.40;6.32;;;18.50;96.70;;;;;;4959533;28;20496;-63
2023/10/09 07:59:54;;;;;;;19.13;7.38;;;18.80;97.20;;;;;;4956297;28;20415;-66
2023/10/09 08:02:32;;;;;;;18.50;5.82;;;20.10;93.50;;;;;;4955307;28;20038;-68
2023/10/09 08:05:06;;;;;;;21.08;6.25;;;21.60;90.40;;;;;;4956777;28;20062;-64
2023/10/09 08:07:36;;;;;;;16.13;5.57;;;22.00;86.20;;;;;;4951474;28;20562;-68
2023/10/09 08:15:21;;;;;;;21.98;6.45;;;23.40;81.70;;;;;;4962269;28;20034;-62
2023/10/09 08:18:09;;;;;;;31.33;5.78;;;23.50;77.80;;;;;;4955787;28;20034;-68
2023/10/09 08:23:48;;;;;;;15.00;5.75;;;23.70;78.40;;;;;;4990631;28;20041;-66
2023/10/09 08:26:14;;;;;;;15.20;5.43;;;24.10;78.70;;;;;;4962644;28;20039;-65
2023/10/09 08:28:42;;;;;;;18.05;6.13;;;24.40;77.70;;;;;;4963908;28;20035;-65
2023/10/09 08:31:45;;;;;;;17.38;6.13;;;24.50;78.20;;;;;;4964903;28;20455;-69
2023/10/09 08:34:48;;;;;;;15.95;6.35;;;24.70;76.80;;;;;;4956912;28;20018;-66
2023/10/09 08:37:00;;;;;;;20.17;5.55;;;24.80;76.70;;;;;;4956775;28;20623;-66
2023/10/09 08:39:26;;;;;;;15.63;4.90;;;24.90;74.90;;;;;;4957912;28;20110;-66
2023/10/09 08:41:53;;;;;;;16.42;6.00;;;25.20;76.80;;;;;;4962818;28;20038;-69
2023/10/09 08:44:24;;;;;;;18.05;6.28;;;25.30;75.60;;;;;;4953670;28;20027;-62
2023/10/09 08:46:50;;;;;;;18.42;6.38;;;25.40;75.20;;;;;;4963037;28;20113;-66
2023/10/09 08:49:17;;;;;;;25.02;6.25;;;25.10;77.40;;;;;;4953385;28;20031;-62
2023/10/09 08:51:46;;;;;;;19.17;5.93;;;25.50;74.70;;;;;;4958704;28;20407;-63
2023/10/09 08:54:14;;;;;;;19.25;5.82;;;25.40;76.30;;;;;;4962607;28;20043;-63
2023/10/09 08:56:49;;;;;;;15.20;5.50;;;25.20;72.70;;;;;;4960418;28;20411;-63
2023/10/09 08:59:18;;;;;;;17.95;5.60;;;25.30;79.00;;;;;;4954420;28;20844;-62
2023/10/09 09:01:44;;;;;;;17.25;6.35;;;25.30;74.20;;;;;;4965392;28;20027;-65
2023/10/09 09:04:10;;;;;;;26.23;6.90;;;25.40;75.80;;;;;;4956663;28;20027;-65
2023/10/09 09:06:41;;;;;;;15.77;5.50;;;25.40;75.10;;;;;;4990451;28;20043;-64
2023/10/09 09:09:13;;;;;;;16.88;6.18;;;25.40;76.90;;;;;;4955647;28;20035;-66
2023/10/09 09:11:49;;;;;;;16.50;6.35;;;25.00;74.20;;;;;;4959538;28;20043;-66
2023/10/09 09:14:18;;;;;;;22.13;6.55;;;25.20;74.50;;;;;;4953621;28;20174;-64
2023/10/09 09:16:48;;;;;;;15.50;6.22;;;25.50;72.10;;;;;;4957960;28;20587;-70
2023/10/09 09:19:17;;;;;;;17.88;6.03;;;25.70;77.10;;;;;;4957007;28;20039;-64
2023/10/09 09:21:59;;;;;;;17.33;6.40;;;26.20;81.50;;;;;;4956507;28;20064;-67
2023/10/09 09:27:18;;;;;;;19.73;6.72;;;25.40;79.80;;;;;;4956903;28;20051;-63
2023/10/09 09:29:52;;;;;;;14.50;6.28;;;25.10;82.80;;;;;;4957760;28;20043;-62
2023/10/09 09:32:29;;;;;;;14.60;5.80;;;24.40;79.90;;;;;;4960989;28;20031;-68
2023/10/09 09:35:01;;;;;;;16.63;5.88;;;24.20;79.50;;;;;;4954008;28;20043;-71
2023/10/09 09:37:50;;;;;;;15.43;5.55;;;24.10;84.70;;;;;;4956057;28;20035;-64
2023/10/09 09:40:29;;;;;;;22.17;8.02;;;23.90;78.20;;;;;;4972244;28;20524;-63
2023/10/09 09:43:05;;;;;;;21.85;7.57;;;23.70;83.90;;;;;;4960776;28;20057;-65
2023/10/09 09:45:46;;;;;;;25.37;7.60;;;23.80;82.10;;;;;;4994992;28;20126;-65
2023/10/09 09:48:16;;;;;;;19.13;6.63;;;23.80;83.20;;;;;;4955359;28;20051;-63
2023/10/09 09:50:46;;;;;;;22.15;8.38;;;23.70;81.80;;;;;;4970965;28;20050;-63
2023/10/09 09:53:17;;;;;;;23.85;7.55;;;23.50;86.20;;;;;;4960437;28;20113;-64
2023/10/09 09:55:55;;;;;;;27.77;8.50;;;23.40;85.60;;;;;;4955881;28;20059;-66
2023/10/09 09:58:23;;;;;;;30.00;7.82;;;23.30;86.90;;;;;;4956983;28;20031;-63
2023/10/09 10:00:57;;;;;;;25.20;9.93;;;23.10;84.10;;;;;;4959660;28;20035;-65
2023/10/09 10:03:32;;;;;;;17.95;9.38;;;23.10;88.90;;;;;;4958107;28;20031;-64
2023/10/09 10:06:05;;;;;;;25.13;8.85;;;23.10;90.40;;;;;;4958408;28;20058;-63
2023/10/09 10:08:32;;;;;;;20.98;8.77;;;23.10;90.00;;;;;;4956153;28;20448;-68
2023/10/09 10:11:05;;;;;;;21.20;8.00;;;23.00;89.40;;;;;;4966936;28;20085;-65
2023/10/09 10:13:42;;;;;;;23.50;8.25;;;22.90;87.40;;;;;;4958514;28;20028;-69
2023/10/09 10:16:11;;;;;;;19.45;8.15;;;22.90;87.50;;;;;;4959680;28;20523;-66
2023/10/09 10:19:06;;;;;;;24.13;7.68;;;22.90;87.70;;;;;;4961600;28;20035;-72
2023/10/09 10:21:41;;;;;;;19.33;7.30;;;22.90;86.60;;;;;;4964462;28;20039;-67
2023/10/09 10:24:28;;;;;;;20.70;7.45;;;22.80;86.40;;;;;;4957452;28;20098;-64
2023/10/09 10:27:24;;;;;;;23.23;6.95;;;22.80;85.50;;;;;;4960882;28;20073;-66
2023/10/09 10:30:13;;;;;;;20.58;7.22;;;22.80;84.50;;;;;;4966718;28;20138;-63
2023/10/09 10:33:08;;;;;;;27.33;7.05;;;22.80;86.90;;;;;;4967601;28;20046;-63
2023/10/09 10:38:55;;;;;;;28.95;6.78;;;22.80;86.20;;;;;;4959270;28;20410;-63
2023/10/09 10:41:22;;;;;;;16.90;6.45;;;22.70;86.20;;;;;;4955849;28;20042;-67
2023/10/09 10:43:54;;;;;;;22.92;6.68;;;22.80;85.10;;;;;;4963087;28;20513;-67
2023/10/09 10:46:24;;;;;;;18.13;6.15;;;22.80;84.70;;;;;;4960174;28;20046;-67
2023/10/09 10:49:00;;;;;;;21.42;6.00;;;22.80;85.80;;;;;;4961309;28;20631;-69
2023/10/09 10:51:35;;;;;;;18.42;6.32;;;22.90;85.40;;;;;;4959646;28;20043;-64
2023/10/09 10:54:28;;;;;;;29.50;7.00;;;22.90;86.60;;;;;;4957004;28;20027;-65
2023/10/09 10:56:51;;;;;;;24.17;6.75;;;22.90;85.70;;;;;;4958007;28;20084;-68
2023/10/09 10:59:23;;;;;;;19.45;6.18;;;22.90;86.30;;;;;;4956301;28;20535;-67
2023/10/09 11:02:13;;;;;;;17.17;6.07;;;22.90;87.40;;;;;;4959470;28;20058;-65
2023/10/09 11:04:41;;;;;;;14.80;5.60;;;22.90;86.50;;;;;;4955710;28;20046;-70
2023/10/09 11:07:09;;;;;;;24.60;6.25;;;23.00;88.20;;;;;;4957603;28;20039;-63
2023/10/09 11:12:39;;;;;;;25.30;6.35;;;23.00;85.90;;;;;;4961420;28;20039;-70
2023/10/09 11:18:08;;;;;;;21.48;6.05;;;23.00;83.00;;;;;;4961604;28;21012;-71
2023/10/09 11:20:36;;;;;;;19.13;6.07;;;23.00;85.10;;;;;;4954777;28;20463;-70
2023/10/09 11:25:52;;;;;;;21.13;5.72;;;23.10;83.40;;;;;;4960155;28;20043;-72
2023/10/09 11:28:29;;;;;;;12.70;5.78;;;23.10;82.20;;;;;;4964434;28;20023;-66
2023/10/09 11:31:05;;;;;;;15.52;5.50;;;23.10;82.30;;;;;;4965715;28;20507;-68
2023/10/09 11:33:43;;;;;;;21.73;6.20;;;23.00;84.40;;;;;;4961203;28;20381;-71
2023/10/09 11:36:08;;;;;;;14.85;5.10;;;23.10;83.70;;;;;;4952501;28;20114;-72
2023/10/09 11:38:39;;;;;;;15.95;6.47;;;23.10;85.70;;;;;;4958193;28;20106;-70
2023/10/09 11:41:19;;;;;;;19.15;5.50;;;23.20;81.50;;;;;;4958732;28;20047;-72
2023/10/09 11:43:54;;;;;;;14.30;5.20;;;23.30;81.40;;;;;;4957569;28;20089;-71
2023/10/09 11:46:37;;;;;;;13.73;5.75;;;23.30;83.40;;;;;;4964900;28;20035;-70
2023/10/09 11:49:32;;;;;;;21.08;5.82;;;23.30;82.20;;;;;;4958665;28;20144;-73
2023/10/09 11:54:35;;;;;;;14.13;5.45;;;23.40;84.20;;;;;;4963313;28;20027;-67
2023/10/09 11:57:01;;;;;;;16.65;5.25;;;23.40;86.80;;;;;;4959309;28;20042;-70
2023/10/09 11:59:28;;;;;;;16.50;5.50;;;23.50;82.50;;;;;;4959627;28;20048;-65
2023/10/09 12:01:54;;;;;;;;;;;23.70;82.30;;;;;;4959747;28;20035;-71
2023/10/09 12:04:29;;;;;;;11.02;5.05;;;23.60;79.90;;;;;;4955283;28;19918;-73
2023/10/09 12:07:06;;;;;;;19.13;6.40;;;23.50;84.10;;;;;;4959089;28;20515;-71
2023/10/09 12:09:34;;;;;;;16.65;5.57;;;23.60;84.10;;;;;;4955800;28;20026;-65
2023/10/09 12:12:02;;;;;;;10.02;4.93;;;23.70;82.40;;;;;;4964829;28;20130;-71
2023/10/09 12:14:33;;;;;;;17.08;5.15;;;23.80;83.50;;;;;;4962053;28;20406;-73
2023/10/09 12:17:08;;;;;;;20.98;6.22;;;23.70;83.90;;;;;;4959415;28;20122;-71
2023/10/09 12:19:38;;;;;;;13.30;5.10;;;24.00;82.00;;;;;;4958296;28;20058;-70
2023/10/09 12:22:06;;;;;;;20.20;5.35;;;24.10;79.70;;;;;;4954337;28;20031;-74
2023/10/09 12:24:33;;;;;;;17.02;5.15;;;24.10;77.20;;;;;;4963825;28;20030;-74
2023/10/09 12:26:59;;;;;;;12.77;4.72;;;24.10;81.30;;;;;;4960241;28;20046;-67
2023/10/09 12:29:29;;;;;;;20.75;5.47;;;24.00;78.90;;;;;;4960404;28;20947;-67
2023/10/09 12:31:58;;;;;;;18.55;5.45;;;24.00;81.80;;;;;;4957733;28;20019;-69
2023/10/09 12:34:27;;;;;;;17.15;5.63;;;24.10;83.70;;;;;;4961041;28;20039;-65
2023/10/09 12:37:02;;;;;;;21.48;5.22;;;24.10;82.60;;;;;;4959473;28;20384;-66
2023/10/09 12:39:33;;;;;;;18.42;4.53;;;24.30;81.80;;;;;;4956824;28;20043;-67
2023/10/09 12:42:06;;;;;;;16.10;6.35;;;24.40;83.00;;;;;;4958531;28;20039;-65
2023/10/09 12:44:38;;;;;;;15.45;4.93;;;24.40;82.80;;;;;;4958236;28;20443;-65
2023/10/09 12:47:05;;;;;;;21.70;5.53;;;24.50;81.50;;;;;;4953936;28;20047;-64
2023/10/09 12:49:31;;;;;;;22.95;5.95;;;24.60;82.40;;;;;;4957448;28;20518;-63
2023/10/09 12:52:00;;;;;;;16.48;5.57;;;24.70;77.50;;;;;;4956489;28;20030;-68
2023/10/09 12:54:28;;;;;;;17.38;4.50;;;24.70;81.80;;;;;;4957253;28;20039;-66
2023/10/09 12:56:55;;;;;;;15.60;4.95;;;24.70;79.80;;;;;;4954184;28;20044;-64
2023/10/09 12:59:21;;;;;;;18.20;5.60;;;24.50;80.70;;;;;;4958886;28;20410;-69
2023/10/09 13:01:52;;;;;;;24.95;5.60;;;24.60;76.40;;;;;;4963967;28;20058;-71
2023/10/09 13:04:22;;;;;;;19.05;5.13;;;24.70;78.90;;;;;;4953268;28;20038;-64
2023/10/09 13:06:51;;;;;;;13.00;4.72;;;24.80;74.90;;;;;;4961763;28;20421;-67
2023/10/09 13:09:25;;;;;;;14.90;5.05;;;24.70;77.70;;;;;;4959770;28;20503;-69
2023/10/09 13:11:50;;;;;;;17.45;4.88;;;24.90;73.80;;;;;;4960346;28;20066;-66
2023/10/09 13:14:22;;;;;;;21.42;5.72;;;25.10;71.50;;;;;;4955753;28;20070;-66
2023/10/09 13:16:52;;;;;;;14.55;4.85;;;24.90;75.40;;;;;;4941889;28;20981;-67
2023/10/09 13:19:18;;;;;;;15.20;5.40;;;24.80;76.50;;;;;;4957837;28;20816;-72
2023/10/09 13:21:44;;;;;;;28.98;5.78;;;24.70;76.20;;;;;;4956524;28;20062;-69
2023/10/09 13:24:15;;;;;;;17.45;5.10;;;24.90;74.40;;;;;;4958630;28;20671;-64
2023/10/09 13:26:43;;;;;;;16.40;5.82;;;24.90;74.80;;;;;;4957171;28;20183;-71
2023/10/09 13:29:11;;;;;;;14.13;4.82;;;24.90;75.80;;;;;;4954965;28;20067;-71
2023/10/09 13:31:39;;;;;;;17.13;4.93;;;24.90;76.80;;;;;;4952607;28;20142;-71
2023/10/09 13:34:14;;;;;;;15.80;4.88;;;24.90;76.60;;;;;;4959043;28;20038;-71
2023/10/09 13:36:49;;;;;;;24.20;5.60;;;24.80;77.80;;;;;;4955453;28;20046;-72
2023/10/09 13:39:24;;;;;;;21.75;6.57;;;24.70;78.90;;;;;;4968945;28;20111;-72
2023/10/09 13:42:07;;;;;;;19.33;4.85;;;24.80;71.70;;;;;;4956890;28;20039;-66
2023/10/09 13:44:33;;;;;;;17.38;5.35;;;25.00;73.40;;;;;;4956684;28;20410;-65
2023/10/09 13:47:01;;;;;;;18.75;4.72;;;25.10;72.20;;;;;;4962984;28;20722;-66
2023/10/09 13:49:29;;;;;;;20.40;5.30;;;24.60;73.30;;;;;;4961946;28;20062;-65
2023/10/09 13:51:56;;;;;;;20.58;5.35;;;24.70;76.30;;;;;;4961836;28;20218;-66
2023/10/09 13:54:39;;;;;;;21.25;5.28;;;24.60;73.60;;;;;;4962160;28;20027;-65
2023/10/09 13:57:06;;;;;;;18.50;4.55;;;24.30;73.90;;;;;;4962203;28;20074;-66
2023/10/09 13:59:36;;;;;;;20.33;4.95;;;24.50;73.10;;;;;;4958822;28;20500;-66
2023/10/09 14:02:02;;;;;;;26.90;4.38;;;25.10;69.70;;;;;;4964748;28;20084;-65
2023/10/09 14:04:28;;;;;;;19.02;4.85;;;25.50;64.90;;;;;;4957591;28;20089;-66
2023/10/09 14:06:58;;;;;;;16.48;4.28;;;25.40;67.00;;;;;;4962006;28;20042;-64
2023/10/09 14:09:54;;;;;;;22.38;5.88;;;25.80;61.90;;;;;;4960058;28;20059;-65
2023/10/09 14:12:21;;;;;;;26.67;5.10;;;25.50;68.60;;;;;;4963543;28;20447;-65
2023/10/09 14:14:47;;;;;;;15.57;4.88;;;25.70;62.20;;;;;;4961078;28;20034;-65
2023/10/09 14:17:23;;;;;;;26.48;5.30;;;25.60;64.60;;;;;;4991506;28;20066;-64
2023/10/09 14:19:50;;;;;;;22.35;4.90;;;25.30;66.80;;;;;;4960494;28;20495;-64
2023/10/09 14:22:18;;;;;;;21.35;5.25;;;24.80;67.80;;;;;;4962747;28;20034;-65
2023/10/09 14:24:48;;;;;;;25.00;4.32;;;24.80;80.50;;;;;;4961911;28;20039;-65
2023/10/09 14:27:17;;;;;;;16.02;4.32;;;25.00;75.60;;;;;;4959110;28;20035;-66
2023/10/09 14:29:46;;;;;;;22.75;4.93;;;25.30;74.60;;;;;;4962552;28;20039;-64
2023/10/09 14:32:15;;;;;;;19.90;5.03;;;25.40;73.70;;;;;;4961649;28;20117;-65
2023/10/09 14:34:46;;;;;;;17.42;4.47;;;25.30;72.10;;;;;;4959868;28;20035;-66
2023/10/09 14:37:12;;;;;;;28.35;6.47;;;25.00;72.50;;;;;;4958207;28;20513;-66
2023/10/09 14:39:39;;;;;;;17.05;5.00;;;24.80;72.80;;;;;;4965443;28;20388;-65
2023/10/09 14:42:11;;;;;;;14.73;4.20;;;24.90;71.00;;;;;;4960436;28;20043;-66
2023/10/09 14:44:38;;;;;;;14.52;4.43;;;25.10;71.40;;;;;;4960417;28;20031;-67
2023/10/09 14:47:07;;;;;;;41.40;4.70;;;24.90;71.00;;;;;;4963465;28;20049;-67
2023/10/09 14:49:46;;;;;;;17.02;5.10;;;24.60;72.50;;;;;;4958825;28;20026;-67
2023/10/09 14:52:16;;;;;;;25.30;5.32;;;24.50;74.10;;;;;;4961243;28;20522;-67
2023/10/09 14:54:45;;;;;;;19.50;5.05;;;24.30;74.90;;;;;;4963645;28;20035;-64
2023/10/09 14:57:15;;;;;;;15.95;4.53;;;24.30;74.70;;;;;;4960080;28;20459;-67
2023/10/09 14:59:42;;;;;;;26.92;4.70;;;24.20;74.60;;;;;;4960136;28;20077;-63
2023/10/09 15:02:08;;;;;;;16.40;4.60;;;24.10;74.30;;;;;;4959390;28;20070;-64
2023/10/09 15:04:37;;;;;;;17.95;4.75;;;24.20;78.00;;;;;;4960380;28;20066;-67
2023/10/09 15:07:07;;;;;;;25.88;5.10;;;24.20;76.10;;;;;;4958117;28;20042;-65
2023/10/09 15:09:36;;;;;;;18.15;5.53;;;24.40;75.90;;;;;;4961539;28;20038;-64
2023/10/09 15:12:01;;;;;;;22.95;5.25;;;24.20;77.40;;;;;;4960544;28;20030;-65
2023/10/09 15:14:27;;;;;;;17.60;5.38;;;24.20;77.40;;;;;;4960935;28;20475;-66
2023/10/09 15:16:52;;;;;;;26.20;4.87;;;24.10;78.10;;;;;;4963872;28;20131;-67
2023/10/09 15:19:18;;;;;;;20.10;5.37;;;24.10;78.10;;;;;;4959996;28;20318;-64
2023/10/09 15:21:44;;;;;;;22.00;5.35;;;24.10;77.60;;;;;;4991210;28;20031;-64
2023/10/09 15:24:15;;;;;;;13.80;4.93;;;24.10;77.50;;;;;;4959511;28;20042;-64
2023/10/09 15:26:41;;;;;;;17.13;4.70;;;24.10;78.20;;;;;;4958549;28;20841;-63
2023/10/09 15:29:09;;;;;;;19.27;5.03;;;24.10;78.60;;;;;;4960840;28;20507;-67
2023/10/09 15:31:35;;;;;;;19.58;5.47;;;24.10;79.10;;;;;;4963404;28;20050;-67
2023/10/09 15:34:01;;;;;;;20.52;6.40;;;24.10;79.80;;;;;;4957501;28;20027;-67
2023/10/09 15:36:31;;;;;;;19.45;5.65;;;24.20;80.00;;;;;;4959751;28;20491;-67
2023/10/09 15:38:59;;;;;;;17.05;4.85;;;24.30;80.10;;;;;;4959662;28;20451;-67
2023/10/09 15:41:31;;;;;;;20.08;5.10;;;24.20;79.60;;;;;;4957212;28;20510;-67
2023/10/09 15:43:58;;;;;;;16.23;4.78;;;24.00;79.90;;;;;;4958592;28;20030;-67
2023/10/09 15:46:25;;;;;;;15.40;4.72;;;23.90;80.20;;;;;;4955981;28;20759;-67